createdAt,value
2019-01-25T00:02:46.931Z,-1.12
2019-01-25T00:07:51.752Z,-1.14
2019-01-25T00:12:56.531Z,-1.17
2019-01-25T00:18:01.360Z,-1.20
2019-01-25T00:23:06.153Z,-1.26
2019-01-25T00:28:10.949Z,-1.23
2019-01-25T00:33:15.654Z,-1.18
2019-01-25T00:38:20.487Z,-1.14
2019-01-25T00:43:25.202Z,-1.19
2019-01-25T00:48:30.031Z,-1.22
2019-01-25T00:53:34.839Z,-1.26
2019-01-25T00:58:39.540Z,-1.25
2019-01-25T01:03:44.440Z,-1.33
2019-01-25T01:08:49.216Z,-1.36
2019-01-25T01:13:53.922Z,-1.35
2019-01-25T01:18:58.693Z,-1.27
2019-01-25T01:24:03.488Z,-1.33
2019-01-25T01:29:08.262Z,-1.33
2019-01-25T01:34:13.031Z,-1.35
2019-01-25T01:39:17.724Z,-1.35
2019-01-25T01:44:22.456Z,-1.36
2019-01-25T01:49:27.161Z,-1.29
2019-01-25T01:54:31.851Z,-1.26
2019-01-25T01:59:36.572Z,-1.28
2019-01-25T02:04:41.383Z,-1.22
2019-01-25T02:09:46.097Z,-1.32
2019-01-25T02:14:50.809Z,-1.25
2019-01-25T02:19:55.549Z,-1.21
2019-01-25T02:25:00.261Z,-1.17
2019-01-25T02:30:08.303Z,-1.23
2019-01-25T02:35:13.099Z,-1.33
2019-01-25T02:40:19.868Z,-1.36
2019-01-25T02:45:24.654Z,-1.41
2019-01-25T02:50:29.374Z,-1.36
2019-01-25T02:55:34.153Z,-1.30
2019-01-25T03:00:39.003Z,-1.27
2019-01-25T03:05:43.753Z,-1.25
2019-01-25T03:10:48.680Z,-1.26
2019-01-25T03:15:53.368Z,-1.27
2019-01-25T03:20:58.150Z,-1.29
2019-01-25T03:26:02.940Z,-1.41
2019-01-25T03:31:07.682Z,-1.43
2019-01-25T03:36:12.426Z,-1.44
2019-01-25T03:41:17.286Z,-1.40
2019-01-25T03:46:22.091Z,-1.49
2019-01-25T03:51:26.794Z,-1.53
2019-01-25T03:56:31.483Z,-1.50
2019-01-25T04:01:36.316Z,-1.40
2019-01-25T04:06:40.962Z,-1.45
2019-01-25T04:11:45.731Z,-1.54
2019-01-25T04:16:50.503Z,-1.58
2019-01-25T04:21:55.215Z,-1.45
2019-01-25T04:27:00.034Z,-1.47
2019-01-25T04:32:04.946Z,-1.59
2019-01-25T04:37:09.806Z,-1.51
2019-01-25T04:42:14.506Z,-1.51
2019-01-25T04:47:26.671Z,-1.44
2019-01-25T04:52:31.466Z,-1.34
2019-01-25T04:57:36.158Z,-1.48
2019-01-25T05:02:40.946Z,-1.58
2019-01-25T05:07:45.724Z,-1.68
2019-01-25T05:12:53.931Z,-1.63
2019-01-25T05:17:58.736Z,-1.58
2019-01-25T05:23:03.792Z,-1.66
2019-01-25T05:28:16.803Z,-1.67
2019-01-25T05:33:21.647Z,-1.65
2019-01-25T05:38:27.392Z,-1.70
2019-01-25T05:43:42.785Z,-1.75
2019-01-25T05:48:47.517Z,-1.75
2019-01-25T05:53:53.116Z,-1.75
2019-01-25T05:58:57.822Z,-1.73
2019-01-25T06:04:02.596Z,-1.74
2019-01-25T06:09:08.542Z,-1.70
2019-01-25T06:14:15.437Z,-1.85
2019-01-25T06:19:20.213Z,-1.83
2019-01-25T06:24:24.945Z,-1.90
2019-01-25T06:29:33.065Z,-1.97
2019-01-25T06:34:37.883Z,-1.96
2019-01-25T06:39:42.643Z,-1.96
2019-01-25T06:44:47.339Z,-1.97
2019-01-25T06:49:52.156Z,-1.92
2019-01-25T06:54:56.944Z,-1.90
2019-01-25T07:00:01.662Z,-1.84
2019-01-25T07:05:07.478Z,-1.71
2019-01-25T07:10:15.829Z,-1.74
2019-01-25T07:15:22.785Z,-1.87
2019-01-25T07:20:27.484Z,-1.91
2019-01-25T07:25:32.407Z,-1.78
2019-01-25T07:30:37.304Z,-1.71
2019-01-25T07:35:41.991Z,-1.68
2019-01-25T07:40:46.874Z,-1.61
2019-01-25T07:45:51.600Z,-1.60
2019-01-25T07:50:56.320Z,-1.60
2019-01-25T07:56:01.163Z,-1.57
2019-01-25T08:01:06.034Z,-1.65
2019-01-25T08:06:10.828Z,-1.62
2019-01-25T08:11:15.770Z,-1.39
2019-01-25T08:16:20.505Z,-1.27
2019-01-25T08:21:25.215Z,-1.20
2019-01-25T08:26:29.999Z,-1.12
2019-01-25T08:31:34.765Z,-1.09
2019-01-25T08:36:39.527Z,-1.02
2019-01-25T08:41:44.234Z,-0.97
2019-01-25T08:46:48.966Z,-0.91
2019-01-25T08:51:53.807Z,-0.84
2019-01-25T08:56:58.594Z,-0.76
2019-01-25T09:02:03.455Z,-0.70
2019-01-25T09:07:08.249Z,-0.60
2019-01-25T09:12:13.024Z,-0.59
2019-01-25T09:17:17.709Z,-0.54
2019-01-25T09:22:22.450Z,-0.57
2019-01-25T09:27:27.141Z,-0.54
2019-01-25T09:32:31.913Z,-0.47
2019-01-25T09:37:36.716Z,-0.30
2019-01-25T09:42:41.420Z,-0.20
2019-01-25T09:47:46.116Z,-0.15
2019-01-25T09:52:50.891Z,-0.09
2019-01-25T09:57:56.325Z,0.07
2019-01-25T10:03:02.007Z,0.26
2019-01-25T10:08:06.869Z,0.44
2019-01-25T10:13:11.583Z,0.58
2019-01-25T10:18:16.275Z,0.91
2019-01-25T10:23:20.975Z,0.88
2019-01-25T10:28:25.676Z,0.70
2019-01-25T10:33:30.362Z,0.54
2019-01-25T10:38:35.137Z,0.54
2019-01-25T10:43:39.820Z,0.70
2019-01-25T10:48:44.527Z,0.86
2019-01-25T10:53:49.236Z,0.90
2019-01-25T10:58:53.961Z,1.04
2019-01-25T11:03:58.684Z,1.03
2019-01-25T11:09:04.937Z,0.94
2019-01-25T11:14:09.792Z,0.68
2019-01-25T11:19:14.492Z,0.60
2019-01-25T11:24:20.162Z,0.51
2019-01-25T11:29:25.022Z,0.21
2019-01-25T11:34:33.108Z,0.12
2019-01-25T11:39:36.154Z,0.11
2019-01-25T11:44:42.109Z,-0.07
2019-01-25T11:49:46.936Z,-0.10
2019-01-25T11:54:51.755Z,-0.13
2019-01-25T11:59:56.630Z,-0.18
2019-01-25T12:05:01.394Z,-0.19
2019-01-25T12:10:08.230Z,-0.18
2019-01-25T12:15:16.104Z,-0.22
2019-01-25T12:20:28.408Z,-0.32
2019-01-25T12:25:33.360Z,-0.29
2019-01-25T12:30:39.494Z,-0.28
2019-01-25T12:35:44.997Z,-0.18
2019-01-25T12:40:49.739Z,-0.10
2019-01-25T12:45:54.491Z,-0.11
2019-01-25T12:51:18.456Z,-0.19
2019-01-25T12:56:23.182Z,-0.22
2019-01-25T13:01:29.648Z,-0.28
2019-01-25T13:06:34.587Z,-0.21
2019-01-25T13:11:39.488Z,-0.19
2019-01-25T13:16:44.364Z,-0.21
2019-01-25T13:21:49.547Z,-0.24
2019-01-25T13:26:54.399Z,-0.36
2019-01-25T13:32:00.950Z,-0.18
2019-01-25T13:37:05.969Z,-0.18
2019-01-25T13:42:10.928Z,-0.28
2019-01-25T13:47:15.739Z,-0.24
2019-01-25T13:52:20.485Z,-0.19
2019-01-25T13:57:25.261Z,-0.16
2019-01-25T14:02:30.134Z,-0.11
2019-01-25T14:07:35.045Z,-0.17
2019-01-25T14:12:39.886Z,-0.45
2019-01-25T14:17:44.710Z,-0.69
2019-01-25T14:22:50.509Z,-0.79
2019-01-25T14:27:55.563Z,-0.77
2019-01-25T14:33:00.490Z,-0.74
2019-01-25T14:38:06.160Z,-0.76
2019-01-25T14:43:11.731Z,-0.69
2019-01-25T14:48:16.540Z,-0.63
2019-01-25T14:53:21.342Z,-0.54
2019-01-25T14:58:26.051Z,-0.48
2019-01-25T15:03:30.835Z,-0.43
2019-01-25T15:08:35.581Z,-0.40
2019-01-25T15:13:40.445Z,-0.43
2019-01-25T15:18:45.219Z,-0.42
2019-01-25T15:23:49.968Z,-0.47
2019-01-25T15:28:54.945Z,-0.57
2019-01-25T15:33:59.825Z,-0.65
2019-01-25T15:39:07.280Z,-0.75
2019-01-25T15:44:12.164Z,-0.86
2019-01-25T15:49:18.941Z,-0.88
2019-01-25T15:54:23.861Z,-0.88
2019-01-25T15:59:29.209Z,-0.83
2019-01-25T16:04:34.974Z,-0.89
2019-01-25T16:09:41.276Z,-0.89
2019-01-25T16:14:46.059Z,-0.75
2019-01-25T16:19:52.225Z,-0.67
2019-01-25T16:24:57.271Z,-0.52
2019-01-25T16:30:02.222Z,-0.46
2019-01-25T16:35:07.702Z,-0.44
2019-01-25T16:40:15.818Z,-0.51
2019-01-25T16:45:23.803Z,-0.50
2019-01-25T16:50:29.195Z,-0.50
2019-01-25T16:55:34.519Z,-0.48
2019-01-25T17:00:47.440Z,-0.48
2019-01-25T17:05:52.896Z,-0.57
2019-01-25T17:10:57.761Z,-0.53
2019-01-25T17:16:02.542Z,-0.53
2019-01-25T17:21:07.391Z,-0.53
2019-01-25T17:26:12.247Z,-0.65
2019-01-25T17:31:17.839Z,-0.70
2019-01-25T17:36:23.455Z,-0.85
2019-01-25T17:41:28.815Z,-0.82
2019-01-25T17:46:34.068Z,-0.89
2019-01-25T17:51:39.129Z,-0.92
2019-01-25T17:56:44.140Z,-0.91
2019-01-25T18:01:49.741Z,-0.91
2019-01-25T18:06:54.979Z,-0.91
2019-01-25T18:12:00.183Z,-0.96
2019-01-25T18:17:05.664Z,-1.04
2019-01-25T18:22:11.226Z,-1.10
2019-01-25T18:27:16.829Z,-1.05
2019-01-25T18:32:22.984Z,-1.01
2019-01-25T18:37:28.724Z,-1.03
2019-01-25T18:42:35.463Z,-1.07
2019-01-25T18:47:41.340Z,-1.09
2019-01-25T18:52:47.168Z,-1.03
2019-01-25T18:57:53.760Z,-1.02
2019-01-25T19:02:59.842Z,-1.00
2019-01-25T19:08:06.567Z,-0.99
2019-01-25T19:13:13.047Z,-1.09
2019-01-25T19:18:18.927Z,-1.09
2019-01-25T19:23:25.247Z,-1.07
2019-01-25T19:28:30.992Z,-1.16
2019-01-25T19:33:36.487Z,-1.15
2019-01-25T19:38:42.115Z,-1.20
2019-01-25T19:43:48.081Z,-1.27
2019-01-25T19:48:54.808Z,-1.26
2019-01-25T19:54:02.029Z,-1.27
2019-01-25T19:59:08.072Z,-1.24
2019-01-25T20:04:14.679Z,-1.16
2019-01-25T20:09:21.476Z,-1.12
2019-01-25T20:14:27.719Z,-1.10
2019-01-25T20:19:34.124Z,-1.13
2019-01-25T20:24:40.204Z,-1.10
2019-01-25T20:29:46.110Z,-1.07
2019-01-25T20:34:51.818Z,-1.17
2019-01-25T20:39:57.600Z,-1.10
2019-01-25T20:45:04.103Z,-1.02
2019-01-25T20:50:13.664Z,-1.06
2019-01-25T20:55:19.541Z,-1.05
2019-01-25T21:00:31.191Z,-1.06
2019-01-25T21:05:37.136Z,-1.04
2019-01-25T21:10:43.201Z,-0.96
2019-01-25T21:15:49.096Z,-0.92
2019-01-25T21:20:54.807Z,-0.87
2019-01-25T21:26:00.720Z,-0.90
2019-01-25T21:31:06.272Z,-0.90
2019-01-25T21:36:12.258Z,-0.86
2019-01-25T21:41:18.092Z,-0.77
2019-01-25T21:46:24.059Z,-0.78
2019-01-25T21:51:30.047Z,-0.75
2019-01-25T21:56:35.548Z,-0.72
2019-01-25T22:01:40.848Z,-0.67
2019-01-25T22:06:45.777Z,-0.63
2019-01-25T22:11:50.644Z,-0.63
2019-01-25T22:16:55.817Z,-0.62
2019-01-25T22:22:00.631Z,-0.59
2019-01-25T22:27:05.448Z,-0.58
2019-01-25T22:32:10.264Z,-0.59
2019-01-25T22:37:15.263Z,-0.63
2019-01-25T22:42:20.122Z,-0.57
2019-01-25T22:47:24.836Z,-0.53
2019-01-25T22:52:29.621Z,-0.52
2019-01-25T22:57:34.441Z,-0.45
2019-01-25T23:02:39.476Z,-0.41
2019-01-25T23:07:44.221Z,-0.35
2019-01-25T23:12:49.433Z,-0.34
2019-01-25T23:17:54.189Z,-0.36
2019-01-25T23:22:59.013Z,-0.36
2019-01-25T23:28:03.728Z,-0.32
2019-01-25T23:33:08.533Z,-0.32
2019-01-25T23:38:13.269Z,-0.32
2019-01-25T23:43:17.975Z,-0.31
2019-01-25T23:48:22.758Z,-0.28
2019-01-25T23:53:27.568Z,-0.27
2019-01-25T23:58:32.354Z,-0.27
